Time;durP1;ratioP1;P1;durP2;ratioP2;P2;SDS_P1;SDS_P2;PMS_P1;PMS_P2;Temp;Humidity;BMP_temperature;BMP_pressure;BME280_temperature;BME280_humidity;BME280_pressure;Samples;Min_cycle;Max_cycle;Signal;HPM_P1;HPM_P2
2022/10/05 00:00:55;;;;;;;10.20;6.93;;;7.90;99.90;;;7.17;90.33;98437.31;5017570;28;20466;-87
2022/10/05 00:03:32;;;;;;;7.73;6.33;;;7.90;99.90;;;7.33;90.78;98469.41;5005866;28;20981;-86
2022/10/05 00:06:00;;;;;;;7.20;6.50;;;7.90;99.90;;;7.71;90.54;98518.78;5002010;28;20459;-86
2022/10/05 00:08:36;;;;;;;9.47;6.93;;;7.90;99.90;;;7.90;90.09;98544.31;5037766;28;21282;-86
2022/10/05 00:11:07;;;;;;;10.17;6.80;;;7.90;99.90;;;7.89;89.72;98535.41;5023555;28;20468;-89
2022/10/05 00:13:52;;;;;;;8.10;6.60;;;7.90;99.90;;;6.97;89.60;98394.88;5050493;28;20530;-94
2022/10/05 00:16:22;;;;;;;7.30;6.40;;;7.90;99.90;;;6.91;89.88;98390.25;5025513;28;20594;-85
2022/10/05 00:18:53;;;;;;;10.37;6.30;;;7.90;99.90;;;7.38;89.47;98439.28;5003266;28;20462;-90
2022/10/05 00:21:26;;;;;;;8.70;6.70;;;7.90;99.90;;;7.31;89.34;98433.81;5011663;28;20458;-90
2022/10/05 00:23:58;;;;;;;8.30;6.23;;;8.00;99.90;;;7.88;89.87;98522.13;4994883;28;20470;-88
2022/10/05 00:26:33;;;;;;;7.50;6.80;;;8.00;99.90;;;7.34;89.39;98420.00;5028004;28;20454;-91
2022/10/05 00:29:06;;;;;;;12.63;6.37;;;8.00;99.90;;;7.93;89.59;98520.53;5027099;28;20481;-92
2022/10/05 00:31:37;;;;;;;9.83;7.13;;;8.00;99.90;;;7.94;89.03;98519.53;5026935;28;20450;-87
2022/10/05 00:34:07;;;;;;;11.13;6.73;;;8.00;99.90;;;7.38;88.97;98433.91;5005039;28;20460;-91
2022/10/05 00:36:35;;;;;;;8.73;6.83;;;8.00;99.90;;;7.94;89.10;98516.81;5021423;28;20493;-92
2022/10/05 00:39:07;;;;;;;8.87;6.47;;;8.00;99.90;;;7.90;89.63;98514.72;5006650;28;20455;-91
2022/10/05 00:42:00;;;;;;;8.13;5.93;;;8.00;99.90;;;7.54;89.17;98449.06;5022618;28;20475;-89
2022/10/05 00:44:41;;;;;;;7.30;6.00;;;8.00;99.90;;;7.92;89.89;98507.28;5036757;28;20451;-90
2022/10/05 00:47:37;;;;;;;7.60;5.77;;;8.10;99.90;;;8.01;89.19;98510.72;5004403;28;20456;-91
2022/10/05 00:50:38;;;;;;;7.70;5.60;;;8.10;99.90;;;7.73;88.76;98453.00;5025763;28;20581;-92
2022/10/05 00:53:26;;;;;;;9.40;6.40;;;8.10;99.90;;;7.83;89.35;98482.34;5028699;28;20462;-94
2022/10/05 00:56:35;;;;;;;6.87;6.17;;;8.10;99.90;;;6.61;89.05;98277.41;5046786;28;20468;-93
2022/10/05 00:59:20;;;;;;;9.83;6.90;;;8.10;99.90;;;7.65;89.06;98462.00;5038928;28;20439;-92
2022/10/05 01:02:01;;;;;;;8.87;6.53;;;8.10;99.90;;;7.43;88.77;98410.03;5022188;28;20551;-93
2022/10/05 01:04:43;;;;;;;7.93;6.30;;;8.10;99.90;;;7.68;88.91;98460.00;5010816;28;20459;-94
2022/10/05 01:07:26;;;;;;;8.87;6.13;;;8.00;99.90;;;7.57;88.57;98429.84;5056631;28;20470;-90
2022/10/05 01:10:04;;;;;;;8.13;6.20;;;8.00;99.90;;;8.08;88.75;98517.00;5031753;28;21022;-93
2022/10/05 01:12:40;;;;;;;11.17;7.10;;;8.00;99.90;;;8.01;87.59;98503.47;5038512;28;20467;-92
2022/10/05 01:15:16;;;;;;;7.13;6.33;;;7.90;99.90;;;7.61;87.81;98443.75;5012553;28;20458;-87
2022/10/05 01:17:49;;;;;;;6.53;5.70;;;7.90;99.90;;;8.03;87.60;98500.59;5038177;28;20954;-84
2022/10/05 01:20:36;;;;;;;6.70;6.00;;;7.80;99.90;;;7.45;87.79;98394.53;5036943;28;20510;-85
2022/10/05 01:23:43;;;;;;;8.73;6.60;;;7.80;99.90;;;7.74;87.99;98451.16;5038459;28;20512;-89
2022/10/05 01:26:42;;;;;;;7.90;6.40;;;7.80;99.90;;;7.35;88.77;98432.47;5014811;28;20470;-91
2022/10/05 01:29:19;;;;;;;9.37;6.70;;;7.70;99.90;;;7.65;89.76;98494.28;5020565;28;20478;-88
2022/10/05 01:31:57;;;;;;;10.33;7.97;;;7.50;99.90;;;7.63;89.92;98496.31;5008194;28;20462;-89
2022/10/05 01:34:36;;;;;;;8.70;6.87;;;7.40;99.90;;;7.50;90.35;98488.91;5026934;28;20464;-91
2022/10/05 01:37:10;;;;;;;8.10;6.23;;;7.30;99.90;;;6.78;90.46;98393.53;5022301;28;20474;-88
2022/10/05 01:39:49;;;;;;;10.87;7.07;;;7.30;99.90;;;6.75;90.54;98375.94;5019898;28;20494;-87
2022/10/05 01:42:27;;;;;;;8.30;6.37;;;7.20;99.90;;;7.20;89.91;98447.69;5019858;28;20450;-91
2022/10/05 01:45:11;;;;;;;8.30;6.50;;;7.30;99.90;;;7.46;89.68;98486.75;5014679;28;20544;-90
2022/10/05 01:47:45;;;;;;;8.27;7.07;;;7.30;99.90;;;7.60;89.82;98512.84;5042162;28;20552;-93
2022/10/05 01:50:27;;;;;;;8.00;7.20;;;7.30;99.90;;;7.72;88.93;98520.47;5033473;28;20469;-89
2022/10/05 01:53:08;;;;;;;13.07;7.30;;;7.40;99.90;;;7.59;89.08;98508.47;5019879;28;20473;-90
2022/10/05 01:55:47;;;;;;;10.70;7.67;;;7.40;99.90;;;7.53;89.92;98501.16;5017249;28;20456;-91
2022/10/05 01:58:24;;;;;;;7.83;7.03;;;7.30;99.90;;;7.60;89.81;98507.47;5019154;28;20509;-92
2022/10/05 02:01:14;;;;;;;8.60;6.90;;;7.40;99.90;;;7.65;90.41;98504.22;5020768;28;20466;-90
2022/10/05 02:03:53;;;;;;;10.13;7.57;;;7.50;99.90;;;6.89;90.76;98398.47;5008211;28;20457;-90
2022/10/05 02:06:45;;;;;;;9.37;8.03;;;7.40;99.90;;;7.49;90.88;98506.06;5007011;28;20458;-90
2022/10/05 02:09:20;;;;;;;11.60;7.53;;;7.30;99.90;;;7.51;91.17;98508.59;5018282;28;20490;-90
2022/10/05 02:11:57;;;;;;;8.80;7.57;;;7.30;99.90;;;6.89;90.59;98392.25;5013103;28;20462;-85
2022/10/05 02:14:33;;;;;;;12.43;7.23;;;7.40;99.90;;;7.62;91.10;98513.47;5036083;28;20569;-88
2022/10/05 02:17:11;;;;;;;11.07;7.70;;;7.50;99.90;;;6.68;90.74;98348.13;5028957;28;20459;-88
2022/10/05 02:19:50;;;;;;;10.43;7.60;;;7.50;99.90;;;6.65;90.81;98356.56;5042880;28;20457;-89
2022/10/05 02:22:24;;;;;;;13.37;8.07;;;7.50;99.90;;;6.96;90.86;98420.06;5048853;28;20447;-88
2022/10/05 02:24:59;;;;;;;8.50;7.30;;;7.40;99.90;;;6.89;90.91;98409.22;5034106;28;20457;-88
2022/10/05 02:27:49;;;;;;;11.13;8.33;;;7.30;99.90;;;7.63;90.08;98507.09;5034157;28;20465;-92
2022/10/05 02:30:31;;;;;;;;;;;;;;;;;;;;;
2022/10/05 02:35:54;;;;;;;10.03;7.90;;;7.50;99.90;;;7.55;92.08;98509.88;5020903;28;20505;-91
2022/10/05 02:38:41;;;;;;;11.70;8.33;;;7.60;99.90;;;7.57;92.43;98480.09;5032837;28;20501;-92
2022/10/05 02:41:22;;;;;;;10.43;7.10;;;7.60;99.90;;;7.21;90.92;98422.53;5041027;28;20473;-92
2022/10/05 02:44:04;;;;;;;11.40;8.13;;;7.70;99.90;;;7.56;91.64;98463.13;5056974;28;20459;-93
2022/10/05 02:49:36;;;;;;;9.60;7.93;;;7.60;99.90;;;7.34;90.98;98438.00;5030374;28;20743;-90
2022/10/05 02:52:15;;;;;;;14.03;8.70;;;7.60;99.90;;;7.50;91.50;98486.22;5023171;28;20452;-91
2022/10/05 02:54:55;;;;;;;10.57;8.20;;;7.60;99.90;;;6.72;91.60;98354.81;5029545;28;20557;-93
2022/10/05 02:57:29;;;;;;;11.07;8.20;;;7.60;99.90;;;7.36;91.63;98447.56;5008502;28;20469;-93
2022/10/05 03:00:07;;;;;;;11.03;7.83;;;7.60;99.90;;;7.35;90.59;98462.03;5009048;28;21085;-90
2022/10/05 03:02:41;;;;;;;11.70;7.30;;;7.50;99.90;;;6.62;90.61;98338.13;5021860;28;20454;-91
2022/10/05 03:05:23;;;;;;;8.73;7.83;;;7.40;99.90;;;6.94;90.67;98390.69;5053006;28;20466;-91
2022/10/05 03:08:00;;;;;;;13.43;8.43;;;7.30;99.90;;;6.87;89.90;98368.28;5018806;28;21191;-91
2022/10/05 03:10:39;;;;;;;11.70;8.77;;;7.30;99.90;;;7.51;90.38;98476.31;4990450;28;20482;-90
2022/10/05 03:13:17;;;;;;;9.17;7.57;;;7.30;99.90;;;6.98;90.38;98390.34;5010047;28;20451;-89
2022/10/05 03:16:07;;;;;;;8.37;7.50;;;7.30;99.90;;;7.45;90.83;98483.25;5026546;28;20557;-89
2022/10/05 03:18:49;;;;;;;13.20;7.30;;;7.30;99.90;;;6.14;91.00;98261.41;5034654;28;20972;-87
2022/10/05 03:21:48;;;;;;;11.53;8.07;;;7.30;99.90;;;7.37;91.89;98469.88;5037504;28;20485;-85
2022/10/05 03:24:45;;;;;;;11.30;7.80;;;7.40;99.90;;;7.39;92.36;98454.41;5036830;28;20453;-88
2022/10/05 03:27:28;;;;;;;10.50;8.17;;;7.50;99.90;;;7.26;92.55;98436.22;5018903;28;20454;-86
2022/10/05 03:30:06;;;;;;;11.70;8.60;;;7.50;99.90;;;7.43;91.90;98447.66;5036616;28;20475;-88
2022/10/05 03:32:49;;;;;;;14.10;9.00;;;7.60;99.90;;;7.47;91.60;98431.97;5033739;28;20453;-89
2022/10/05 03:35:26;;;;;;;13.70;9.10;;;7.50;99.90;;;7.04;91.99;98385.03;5035998;28;20536;-86
2022/10/05 03:38:08;;;;;;;11.77;9.07;;;7.60;99.90;;;6.93;91.76;98353.28;5019461;28;20458;-86
2022/10/05 03:40:41;;;;;;;8.40;7.60;;;7.60;99.90;;;7.04;91.40;98374.28;5019588;28;20813;-86
2022/10/05 03:46:06;;;;;;;13.83;9.70;;;7.60;99.90;;;7.35;91.08;98423.53;5045847;27;3885003;-88
2022/10/05 03:48:43;;;;;;;11.97;8.70;;;7.60;99.90;;;7.58;91.54;98444.97;5154817;27;20186;-87
2022/10/05 03:51:18;;;;;;;9.40;8.20;;;7.50;99.90;;;7.58;91.60;98444.13;5120656;27;20433;-93
2022/10/05 03:53:55;;;;;;;12.30;8.33;;;7.50;99.90;;;7.54;91.79;98442.81;5143484;27;20469;-90
2022/10/05 03:56:31;;;;;;;15.87;8.50;;;7.60;99.90;;;7.27;92.44;98405.66;5120396;27;20553;-89
2022/10/05 03:59:21;;;;;;;9.23;8.00;;;7.60;99.90;;;7.47;92.58;98442.72;5121520;27;20449;-90
2022/10/05 04:01:56;;;;;;;10.57;8.50;;;7.60;99.90;;;7.34;92.24;98425.38;5103786;27;20461;-87
2022/10/05 04:04:34;;;;;;;12.23;8.60;;;7.60;99.90;;;7.45;92.65;98425.94;5114168;27;20809;-88
2022/10/05 04:07:02;;;;;;;11.43;9.17;;;7.60;99.90;;;7.08;92.89;98374.78;5117411;28;20453;-88
2022/10/05 04:09:37;;;;;;;10.87;8.50;;;7.60;99.90;;;5.87;92.57;98174.25;5131994;27;20519;-88
2022/10/05 04:12:22;;;;;;;11.60;8.50;;;7.60;99.90;;;7.47;92.72;98430.13;5131889;27;20444;-87
2022/10/05 04:14:59;;;;;;;9.37;8.33;;;7.60;99.90;;;7.41;93.34;98409.34;5123057;27;20526;-87
2022/10/05 04:17:35;;;;;;;12.20;8.67;;;7.60;99.90;;;6.90;92.37;98329.44;5148548;27;20515;-85
2022/10/05 04:20:09;;;;;;;10.57;8.27;;;7.60;99.90;;;7.52;92.50;98424.19;5131942;27;20458;-92
2022/10/05 04:22:41;;;;;;;9.90;7.87;;;7.60;99.90;;;6.37;92.24;98228.31;5136268;27;20549;-89
2022/10/05 04:25:18;;;;;;;9.53;8.30;;;7.60;99.90;;;7.45;92.69;98409.81;5146427;27;20468;-88
2022/10/05 04:27:55;;;;;;;12.83;8.57;;;7.60;99.90;;;6.73;92.67;98300.06;5138663;27;20535;-87
2022/10/05 04:30:24;;;;;;;9.87;8.03;;;7.60;99.90;;;7.57;91.99;98427.16;5172302;27;20961;-87
2022/10/05 04:32:57;;;;;;;12.83;8.23;;;7.50;99.90;;;6.88;91.87;98328.81;5133334;27;20450;-86
2022/10/05 04:35:44;;;;;;;10.53;9.43;;;7.50;99.90;;;6.97;91.09;98346.50;5133348;27;20453;-85
2022/10/05 04:38:31;;;;;;;13.97;9.70;;;7.40;99.90;;;7.21;91.35;98368.78;5160758;27;20452;-81
2022/10/05 04:41:20;;;;;;;11.80;8.60;;;7.40;99.90;;;7.50;90.45;98439.66;5126269;27;20533;-82
2022/10/05 04:44:05;;;;;;;11.20;9.17;;;7.30;99.90;;;7.45;91.00;98444.78;5141945;27;20481;-79
2022/10/05 04:46:47;;;;;;;10.50;8.20;;;7.20;99.90;;;7.35;90.53;98429.78;5137488;27;20486;-80
2022/10/05 04:49:35;;;;;;;13.10;8.50;;;7.10;99.90;;;7.34;90.68;98432.63;5149057;27;20452;-81
2022/10/05 04:52:14;;;;;;;11.97;9.20;;;7.10;99.90;;;7.30;90.63;98428.66;5147595;27;20450;-80
2022/10/05 04:54:57;;;;;;;11.30;9.70;;;7.10;99.90;;;7.30;90.99;98452.84;5123536;27;20503;-81
2022/10/05 04:57:33;;;;;;;11.27;8.50;;;7.00;99.90;;;7.30;91.08;98458.22;5125928;27;20454;-78
2022/10/05 05:00:09;;;;;;;8.60;7.80;;;7.00;99.90;;;7.31;91.07;98460.69;5148536;27;20462;-79
2022/10/05 05:03:03;;;;;;;10.20;8.50;;;7.00;99.90;;;7.27;91.44;98461.25;5116329;27;20450;-77
2022/10/05 05:05:58;;;;;;;15.20;10.00;;;6.90;99.90;;;7.27;90.42;98443.28;5122784;27;20562;-80
2022/10/05 05:08:42;;;;;;;9.13;8.13;;;7.00;99.90;;;7.31;89.93;98454.50;5103503;27;20549;-81
2022/10/05 05:11:28;;;;;;;11.93;9.33;;;7.10;99.90;;;7.19;90.11;98429.91;5145575;27;20451;-83
2022/10/05 05:14:28;;;;;;;11.20;9.23;;;7.10;99.90;;;7.09;90.47;98431.03;5128781;27;20448;-78
2022/10/05 05:17:11;;;;;;;10.97;9.87;;;7.00;99.90;;;7.14;90.52;98453.81;5149094;27;20467;-84
2022/10/05 05:19:51;;;;;;;15.07;10.40;;;6.90;99.90;;;7.04;91.48;98449.53;5166980;27;20449;-80
2022/10/05 05:22:33;;;;;;;14.07;10.60;;;6.80;99.90;;;7.03;91.37;98447.84;5130538;27;20515;-81
2022/10/05 05:25:19;;;;;;;13.83;10.67;;;6.70;99.90;;;7.41;92.58;98454.22;5123994;27;20562;-78
2022/10/05 05:27:53;;;;;;;16.07;11.60;;;7.10;99.90;;;7.71;92.88;98454.25;5146772;27;20477;-82
2022/10/05 05:30:23;;;;;;;17.33;11.90;;;7.40;99.90;;;7.64;91.22;98452.28;5123534;27;20474;-81
2022/10/05 05:33:07;;;;;;;13.73;10.37;;;7.40;99.90;;;7.65;91.60;98463.88;5142079;27;20443;-82
2022/10/05 05:36:12;;;;;;;23.80;13.03;;;7.40;99.90;;;7.67;91.59;98464.53;5115690;27;20793;-82
2022/10/05 05:38:48;;;;;;;13.70;11.67;;;7.40;99.90;;;6.96;91.28;98347.53;5118513;27;20464;-85
2022/10/05 05:41:26;;;;;;;20.50;11.93;;;7.40;99.90;;;7.65;91.81;98462.00;5114837;27;20763;-83
2022/10/05 05:44:14;;;;;;;13.80;10.90;;;7.50;99.90;;;7.74;91.31;98470.00;5100596;27;20463;-84
2022/10/05 05:46:46;;;;;;;13.80;11.00;;;7.60;99.90;;;7.85;91.33;98469.53;5109942;27;20458;-80
2022/10/05 05:49:21;;;;;;;14.47;12.60;;;7.60;99.90;;;7.83;91.24;98458.13;5101013;27;20487;-83
2022/10/05 05:51:58;;;;;;;14.90;10.90;;;7.70;99.90;;;7.86;91.24;98471.22;5099957;27;20480;-84
2022/10/05 05:54:36;;;;;;;13.10;10.80;;;7.80;99.90;;;7.88;92.01;98471.84;5097738;27;20962;-79
2022/10/05 05:57:12;;;;;;;20.87;11.47;;;7.80;99.90;;;8.12;90.96;98480.66;5116136;27;20461;-81
2022/10/05 05:59:53;;;;;;;14.40;10.67;;;7.90;99.90;;;8.07;91.14;98483.91;5108383;27;20473;-80
2022/10/05 06:02:27;;;;;;;11.87;10.67;;;7.90;99.90;;;8.07;90.88;98477.66;5101445;27;20450;-83
2022/10/05 06:05:01;;;;;;;15.17;11.30;;;8.00;99.90;;;8.22;90.20;98494.63;5117776;27;20569;-80
2022/10/05 06:07:31;;;;;;;17.30;11.00;;;8.00;99.90;;;8.22;89.95;98491.94;5112728;27;20467;-79
2022/10/05 06:10:14;;;;;;;14.80;10.97;;;8.10;99.90;;;8.34;90.13;98484.22;5118871;27;20453;-81
2022/10/05 06:12:46;;;;;;;12.63;10.10;;;8.20;99.90;;;8.33;90.46;98495.16;5123673;27;20496;-80
2022/10/05 06:15:24;;;;;;;13.40;10.33;;;8.20;99.90;;;8.38;89.98;98506.19;5109665;27;20462;-81
2022/10/05 06:17:56;;;;;;;14.70;10.30;;;8.20;99.90;;;8.32;89.76;98498.88;5108427;27;20454;-79
2022/10/05 06:20:31;;;;;;;13.10;10.70;;;8.30;99.90;;;8.40;89.97;98497.94;5151048;27;20537;-78
2022/10/05 06:23:02;;;;;;;13.30;10.70;;;8.30;99.90;;;8.42;89.96;98504.81;5148945;27;20449;-80
2022/10/05 06:25:42;;;;;;;11.33;10.13;;;8.40;99.90;;;8.27;89.48;98458.25;5121275;27;20498;-79
2022/10/05 06:28:11;;;;;;;11.87;10.67;;;8.40;99.90;;;8.43;89.33;98501.09;5130876;27;20453;-79
2022/10/05 06:30:49;;;;;;;13.63;10.90;;;8.40;99.90;;;8.68;89.27;98503.44;5095697;27;20503;-78
2022/10/05 06:33:39;;;;;;;13.00;11.07;;;8.50;99.90;;;8.54;89.48;98512.41;5116320;27;20448;-82
2022/10/05 06:36:23;;;;;;;12.10;10.40;;;8.50;99.90;;;8.67;89.17;98519.81;5110101;27;20450;-81
2022/10/05 06:39:52;;;;;;;13.20;11.50;;;8.50;99.90;;;8.81;88.62;98512.69;5135326;27;20575;-80
2022/10/05 06:42:36;;;;;;;14.23;11.43;;;8.70;99.90;;;8.81;88.16;98518.09;5053066;28;20499;-81
2022/10/05 06:45:15;;;;;;;18.00;11.47;;;8.80;99.90;;;8.94;87.73;98523.63;5121355;27;20504;-82
2022/10/05 06:47:49;;;;;;;14.90;11.57;;;8.90;99.90;;;9.14;87.58;98522.94;5142354;27;20447;-81
2022/10/05 06:50:30;;;;;;;12.43;11.07;;;9.00;99.90;;;9.37;85.83;98527.31;5150121;27;20486;-81
2022/10/05 06:53:17;;;;;;;15.90;11.67;;;9.10;99.90;;;9.39;85.71;98533.34;5130732;27;20548;-80
2022/10/05 06:55:53;;;;;;;12.27;10.93;;;9.30;99.90;;;9.53;85.39;98537.81;5136428;27;20482;-80
2022/10/05 06:58:40;;;;;;;12.13;10.33;;;9.30;99.90;;;9.53;85.40;98529.72;5133838;27;20464;-76
2022/10/05 07:01:15;;;;;;;11.80;10.07;;;9.40;99.60;;;9.66;85.03;98536.25;5123754;27;20450;-82
2022/10/05 07:04:03;;;;;;;14.23;10.50;;;9.50;98.30;;;9.82;84.49;98530.53;5144890;27;20436;-82
2022/10/05 07:06:35;;;;;;;14.23;11.83;;;9.60;98.80;;;9.96;84.30;98530.63;5110397;27;20510;-81
2022/10/05 07:09:21;;;;;;;12.63;10.93;;;9.80;97.80;;;10.33;82.90;98532.06;5102018;27;20486;-80
2022/10/05 07:12:14;;;;;;;11.90;10.50;;;10.00;96.90;;;10.07;83.03;98538.13;5103111;27;20975;-81
2022/10/05 07:15:04;;;;;;;12.70;11.33;;;10.10;95.10;;;10.41;82.29;98533.78;5104855;28;20470;-80
2022/10/05 07:17:45;;;;;;;13.10;11.73;;;10.20;95.60;;;10.42;82.63;98540.00;5124905;27;20915;-82
2022/10/05 07:20:19;;;;;;;12.53;11.00;;;10.20;95.10;;;10.26;82.74;98541.97;5107720;27;21205;-81
2022/10/05 07:23:16;;;;;;;15.40;11.50;;;10.20;94.90;;;10.37;82.95;98547.84;5107135;27;20463;-80
2022/10/05 07:25:52;;;;;;;15.53;11.20;;;10.30;94.80;;;10.70;81.42;98537.19;5108205;27;20477;-84
2022/10/05 07:28:28;;;;;;;15.10;12.07;;;10.50;94.40;;;10.57;82.48;98542.56;5097640;27;20437;-84
2022/10/05 07:31:03;;;;;;;11.60;10.40;;;10.50;93.80;;;10.86;81.45;98543.28;5109953;27;20488;-77
2022/10/05 07:33:40;;;;;;;12.67;11.30;;;10.60;94.60;;;10.77;82.20;98548.84;5106456;27;20468;-79
2022/10/05 07:39:06;;;;;;;15.30;12.90;;;10.80;94.30;;;11.18;80.97;98543.53;5109645;27;20461;-83
2022/10/05 07:41:44;;;;;;;12.80;11.40;;;10.90;93.80;;;10.85;80.22;98514.56;5114209;27;20460;-88
2022/10/05 07:44:19;;;;;;;14.07;12.60;;;11.00;93.10;;;11.22;80.39;98547.47;5110566;28;20532;-82
2022/10/05 07:46:55;;;;;;;15.03;10.83;;;11.10;93.10;;;11.36;79.49;98545.59;5121240;27;20480;-79
2022/10/05 07:49:35;;;;;;;13.20;11.83;;;11.20;92.20;;;11.09;79.15;98487.97;5103784;28;20856;-87
2022/10/05 07:52:09;;;;;;;12.43;11.13;;;11.30;92.10;;;11.53;78.99;98545.22;5097724;28;20453;-85
2022/10/05 07:54:49;;;;;;;12.10;10.80;;;11.40;91.90;;;11.50;79.03;98542.91;5121968;28;20556;-76
2022/10/05 07:57:25;;;;;;;12.43;11.07;;;11.40;91.60;;;11.72;78.33;98546.22;5119190;27;20438;-77
2022/10/05 08:00:02;;;;;;;13.90;11.40;;;11.60;91.50;;;11.87;77.33;98551.41;5117406;27;20545;-75
2022/10/05 08:02:34;;;;;;;11.47;10.37;;;11.70;90.90;;;11.98;77.33;98558.06;5114908;28;20455;-76
2022/10/05 08:05:10;;;;;;;13.50;10.87;;;11.80;90.80;;;12.30;76.32;98561.75;5144399;27;20435;-76
2022/10/05 08:07:38;;;;;;;11.77;10.50;;;11.90;90.50;;;12.55;75.02;98560.22;5124575;28;20467;-76
2022/10/05 08:10:23;;;;;;;12.93;11.50;;;12.10;90.10;;;12.51;75.09;98551.69;5139021;27;20436;-77
2022/10/05 08:13:04;;;;;;;14.50;11.40;;;12.20;89.50;;;12.61;74.34;98548.50;5145252;27;20459;-78
2022/10/05 08:15:37;;;;;;;14.90;11.17;;;12.40;89.30;;;12.71;74.74;98554.31;5134791;27;20445;-74
2022/10/05 08:18:14;;;;;;;12.70;11.40;;;12.40;89.20;;;12.64;74.48;98556.19;5133326;27;20444;-77
2022/10/05 08:20:47;;;;;;;13.43;10.47;;;12.50;88.90;;;12.57;75.23;98552.69;5120428;27;21220;-84
2022/10/05 08:23:24;;;;;;;13.10;10.37;;;12.40;88.90;;;12.89;74.26;98550.03;5117681;27;20457;-86
2022/10/05 08:26:06;;;;;;;11.20;10.10;;;12.50;88.60;;;13.02;73.08;98547.25;5112953;28;20489;-83
2022/10/05 08:28:37;;;;;;;17.60;10.40;;;12.70;88.30;;;13.15;72.98;98562.59;5110263;27;20463;-81
2022/10/05 08:31:15;;;;;;;10.10;9.10;;;12.90;87.60;;;13.06;73.51;98558.50;5115614;27;20955;-84
2022/10/05 08:33:57;;;;;;;11.07;9.57;;;12.80;87.70;;;13.31;72.38;98550.38;5118965;27;20584;-77
2022/10/05 08:36:52;;;;;;;10.23;9.33;;;13.00;87.30;;;13.52;71.67;98544.84;5111041;27;20458;-81
2022/10/05 08:39:21;;;;;;;10.53;9.40;;;13.10;87.10;;;13.17;72.82;98541.50;5097943;27;20574;-80
2022/10/05 08:42:19;;;;;;;11.10;9.93;;;13.10;86.50;;;13.52;72.36;98542.94;5090049;27;20639;-78
2022/10/05 08:45:36;;;;;;;9.93;9.03;;;13.10;86.80;;;13.77;71.38;98541.25;5082094;27;20569;-77
2022/10/05 08:48:56;;;;;;;9.80;8.80;;;13.40;86.60;;;14.19;69.76;98532.47;5100272;27;20447;-77
2022/10/05 08:52:18;;;;;;;10.27;8.90;;;13.70;86.00;;;14.38;67.97;98531.41;5117304;27;20599;-76
2022/10/05 08:55:33;;;;;;;10.13;9.20;;;14.00;85.00;;;14.56;68.97;98527.84;5112415;27;21439;-77
2022/10/05 08:58:37;;;;;;;16.83;9.73;;;14.10;85.00;;;14.94;67.93;98527.78;5093333;27;20933;-77
2022/10/05 09:01:18;;;;;;;10.70;9.60;;;14.40;84.90;;;15.06;67.20;98531.38;5087284;27;22195;-79
2022/10/05 09:04:10;;;;;;;11.37;8.60;;;14.60;84.70;;;15.42;65.89;98528.72;5114275;27;20215;-80
2022/10/05 09:07:21;;;;;;;8.83;7.93;;;14.80;84.20;;;15.64;65.31;98530.88;5114568;27;21018;-78
2022/10/05 09:10:41;;;;;;;10.70;8.43;;;15.20;83.40;;;15.21;65.88;98530.13;5027643;28;20883;-82
2022/10/05 09:13:53;;;;;;;10.40;8.57;;;15.10;82.90;;;15.48;65.49;98533.22;5090970;27;20517;-75
2022/10/05 09:17:16;;;;;;;9.07;8.23;;;15.10;82.90;;;15.71;65.28;98526.16;5114149;27;21778;-81
2022/10/05 09:20:17;;;;;;;9.33;8.33;;;15.30;83.10;;;15.64;64.76;98517.25;5111194;27;20473;-79
2022/10/05 09:23:00;;;;;;;9.73;8.73;;;15.30;82.50;;;15.25;66.60;98526.69;5102576;27;20595;-82
2022/10/05 09:25:43;;;;;;;9.67;8.77;;;15.20;82.80;;;15.60;65.75;98524.25;5092674;27;20876;-75
2022/10/05 09:28:31;;;;;;;9.87;8.57;;;15.30;83.20;;;16.11;64.90;98524.63;5135125;27;20476;-76
2022/10/05 09:31:14;;;;;;;8.20;7.40;;;15.50;83.10;;;16.21;63.70;98513.09;5138028;27;20490;-74
2022/10/05 09:34:30;;;;;;;8.87;7.93;;;15.80;82.20;;;16.36;63.07;98524.31;5138501;27;20461;-75
2022/10/05 09:37:56;;;;;;;8.50;7.73;;;16.00;82.00;;;16.47;62.67;98521.81;5114655;27;20664;-74
2022/10/05 09:41:26;;;;;;;9.27;7.80;;;16.10;81.80;;;16.32;63.48;98514.97;5128712;27;20454;-75
2022/10/05 09:44:30;;;;;;;7.33;6.70;;;16.10;81.70;;;16.60;63.06;98502.41;5139429;27;20460;-74
2022/10/05 09:47:30;;;;;;;8.50;7.60;;;16.20;82.00;;;16.45;63.76;98513.88;5136329;27;20481;-80
2022/10/05 09:50:31;;;;;;;7.97;7.30;;;16.20;81.60;;;16.52;63.11;98513.72;5136501;27;20462;-77
2022/10/05 09:53:52;;;;;;;8.80;8.00;;;16.30;81.40;;;16.45;63.28;98510.28;5111392;27;20948;-78
2022/10/05 09:56:50;;;;;;;10.30;7.90;;;16.20;81.50;;;16.75;63.21;98506.50;5112528;27;20469;-82
2022/10/05 09:59:59;;;;;;;8.97;8.20;;;16.30;81.80;;;16.62;64.15;98503.03;5118097;27;20454;-84
2022/10/05 10:03:05;;;;;;;7.90;7.10;;;16.40;82.00;;;16.48;63.83;98497.00;5099678;27;20478;-83
2022/10/05 10:06:00;;;;;;;7.67;6.97;;;16.40;81.80;;;16.42;64.07;98489.81;5086785;27;20553;-81
2022/10/05 10:08:42;;;;;;;8.17;7.47;;;16.30;81.80;;;16.45;64.24;98496.66;5110071;27;20466;-78
2022/10/05 10:11:23;;;;;;;7.33;6.63;;;16.30;81.60;;;16.56;64.48;98498.53;5118588;27;20561;-81
2022/10/05 10:14:48;;;;;;;10.87;8.10;;;16.30;82.10;;;16.88;63.37;98502.69;5102415;27;20560;-85
2022/10/05 10:17:56;;;;;;;9.70;6.90;;;16.50;81.90;;;16.91;63.60;98497.56;5088688;27;20475;-80
2022/10/05 10:20:41;;;;;;;8.03;7.33;;;16.70;82.20;;;17.09;63.08;98479.34;5083856;27;20509;-81
2022/10/05 10:23:47;;;;;;;8.77;7.30;;;16.80;81.90;;;17.44;62.75;98502.84;5098697;27;20473;-79
2022/10/05 10:26:51;;;;;;;7.97;6.80;;;17.00;81.80;;;17.47;62.57;98491.41;5114675;27;20479;-84
2022/10/05 10:30:10;;;;;;;7.70;7.10;;;17.20;81.60;;;17.08;62.53;98442.19;5093234;27;20545;-82
2022/10/05 10:33:45;;;;;;;9.80;7.00;;;17.20;81.40;;;17.46;62.19;98476.09;5091365;27;20465;-78
2022/10/05 10:36:18;;;;;;;6.10;5.60;;;17.10;81.40;;;17.73;61.50;98477.28;5119219;27;20445;-81
2022/10/05 10:38:57;;;;;;;9.17;7.60;;;17.40;81.00;;;17.81;61.40;98477.69;5102506;27;20451;-82
2022/10/05 10:41:55;;;;;;;7.63;6.93;;;17.50;81.10;;;17.83;61.43;98477.44;5100769;27;20446;-83
2022/10/05 10:45:03;;;;;;;7.00;6.40;;;17.60;80.90;;;18.06;61.46;98479.16;5116580;27;20518;-82
2022/10/05 10:48:01;;;;;;;6.27;5.50;;;17.70;81.10;;;18.54;59.72;98473.16;5114338;27;20512;-78
2022/10/05 10:51:02;;;;;;;6.77;6.10;;;18.00;81.00;;;18.27;60.06;98473.94;5098253;27;20492;-79
2022/10/05 10:54:08;;;;;;;7.30;5.90;;;18.00;80.20;;;18.43;60.23;98474.97;5111964;27;20495;-80
2022/10/05 10:56:57;;;;;;;6.90;6.20;;;18.00;80.30;;;18.44;59.93;98476.63;5091921;27;20452;-77
2022/10/05 11:00:30;;;;;;;6.33;5.20;;;18.10;80.10;;;18.21;60.44;98473.06;5112143;27;20535;-77
2022/10/05 11:03:29;;;;;;;5.80;5.30;;;18.00;80.10;;;18.64;59.31;98467.81;5046183;27;20818;-78
2022/10/05 11:06:41;;;;;;;5.70;5.20;;;18.20;79.90;;;18.55;59.31;98461.13;5101110;27;20525;-78
2022/10/05 11:09:59;;;;;;;6.87;6.27;;;18.30;79.60;;;18.31;60.53;98455.97;5049285;27;20470;-80
2022/10/05 11:13:12;;;;;;;7.97;4.80;;;18.10;79.90;;;18.90;58.92;98459.88;5057673;27;20446;-83
2022/10/05 11:16:34;;;;;;;5.13;4.63;;;18.40;79.70;;;18.37;59.94;98446.72;5114151;27;20458;-84
2022/10/05 11:19:26;;;;;;;9.67;5.10;;;18.10;79.40;;;18.54;59.79;98459.47;5111795;27;20467;-84
2022/10/05 11:22:21;;;;;;;6.97;5.57;;;18.20;79.60;;;18.63;59.55;98447.00;5095516;27;20806;-83
2022/10/05 11:25:27;;;;;;;6.10;5.37;;;18.30;79.60;;;18.97;58.50;98444.03;5093665;28;20482;-80
2022/10/05 11:28:14;;;;;;;5.30;4.80;;;18.50;79.40;;;18.71;58.65;98453.09;5104618;27;20493;-81
2022/10/05 11:31:52;;;;;;;5.70;5.20;;;18.50;78.70;;;18.73;58.73;98435.34;5110958;27;20480;-80
2022/10/05 11:35:06;;;;;;;5.93;4.40;;;18.40;78.80;;;18.75;58.79;98427.69;5058758;28;20447;-81
2022/10/05 11:38:07;;;;;;;5.77;5.27;;;18.50;79.00;;;18.93;57.70;98396.38;5094421;28;20459;-83
2022/10/05 11:41:08;;;;;;;5.57;5.07;;;18.60;78.80;;;18.63;58.05;98369.56;5114188;27;20451;-82
2022/10/05 11:44:27;;;;;;;5.20;4.70;;;18.80;78.60;;;19.22;57.13;98420.72;5111080;28;20488;-82
2022/10/05 11:46:59;;;;;;;5.07;4.77;;;18.90;78.10;;;19.11;56.96;98421.72;5121147;27;21076;-80
2022/10/05 11:49:38;;;;;;;5.33;4.87;;;19.00;77.70;;;19.20;57.61;98428.38;5132683;27;20949;-79
2022/10/05 11:52:13;;;;;;;8.47;5.20;;;18.90;78.00;;;19.22;57.85;98428.09;5121588;28;20482;-82